| time (UTC) | temp F | wind direction | speed knots | gust knots | rain 1hr in | rain 24hr in | rain mn in | humidity % | barometer mb |
| 20260906051548 | 57 | 313 | 0.0 | 0.0 | 0.00 | 0.19 | 0.00 | 99 | 1024.5 |
| 20260906050046 | 57 | 313 | 0.0 | 0.0 | 0.00 | 0.19 | 0.00 | 98 | 1024.4 |
| 20260906044542 | 58 | 313 | 0.0 | 0.0 | 0.00 | 0.19 | 0.00 | 99 | 1024.3 |
| 20260906043040 | 58 | 313 | 0.0 | 0.0 | 0.00 | 0.19 | 0.00 | 99 | 1024.1 |
| 20260906041539 | 58 | 313 | 0.0 | 0.0 | 0.00 | 0.19 | 0.00 | 99 | 1024.0 |
| 20260906040038 | 58 | 313 | 0.0 | 0.0 | 0.00 | 0.19 | 0.00 | 99 | 1024.0 |
| 20260906034552 | 58 | 313 | 0.0 | 0.0 | 0.00 | 0.19 | 0.00 | 99 | 1023.8 |
| 20260906033038 | 58 | 313 | 0.0 | 0.0 | 0.00 | 0.19 | 0.00 | 99 | 1023.7 |
| 20260906031534 | 59 | 313 | 0.0 | 0.0 | 0.00 | 0.19 | 0.00 | 99 | 1023.6 |
| 20260906030031 | 59 | 313 | 0.0 | 0.0 | 0.00 | 0.19 | 0.00 | 98 | 1023.5 |
| 20260906024531 | 59 | 313 | 0.0 | 0.0 | 0.00 | 0.19 | 0.00 | 98 | 1023.4 |
| 20260906023030 | 59 | 313 | 0.0 | 0.0 | 0.00 | 0.19 | 0.00 | 98 | 1023.4 |
| 20260906021532 | 59 | 313 | 0.0 | 0.0 | 0.00 | 0.19 | 0.00 | 98 | 1023.2 |
| 20260906020023 | 60 | 313 | 0.0 | 0.0 | 0.00 | 0.19 | 0.00 | 98 | 1022.9 |
| 20260906014521 | 60 | 312 | 0.0 | 0.0 | 0.00 | 0.19 | 0.00 | 99 | 1022.8 |
| 20260906013020 | 61 | 313 | 0.0 | 0.0 | 0.00 | 0.19 | 0.00 | 98 | 1022.7 |
| 20260906011518 | 61 | 313 | 0.0 | 0.0 | 0.00 | 0.19 | 0.00 | 99 | 1022.8 |
| 20260906010017 | 61 | 313 | 0.0 | 0.0 | 0.00 | 0.19 | 0.00 | 99 | 1022.8 |
| 20260906004517 | 61 | 313 | 0.0 | 0.0 | 0.00 | 0.19 | 0.00 | 99 | 1022.8 |
| 20260906003015 | 61 | 313 | 0.0 | 0.0 | 0.00 | 0.19 | 0.00 | 98 | 1022.7 |
| 20260906001523 | 61 | 313 | 0.0 | 0.0 | 0.00 | 0.19 | 0.00 | 98 | 1022.6 |
| 20260906000012 | 62 | 313 | 0.0 | 0.0 | 0.00 | 0.19 | 0.00 | 98 | 1022.5 |
| 20260905234510 | 62 | 313 | 0.0 | 0.0 | 0.00 | 0.19 | 0.00 | 98 | 1022.4 |
| 20260905233008 | 62 | 313 | 0.0 | 0.0 | 0.00 | 0.19 | 0.00 | 98 | 1022.4 |
| 20260905231512 | 63 | 313 | 0.0 | 0.0 | 0.00 | 0.19 | 0.00 | 98 | 1022.4 |
| 20260905230005 | 63 | 313 | 0.0 | 0.0 | 0.00 | 0.19 | 0.00 | 99 | 1022.3 |
| 20260905224504 | 63 | 313 | 0.0 | 0.0 | 0.00 | 0.19 | 0.00 | 98 | 1022.2 |
| 20260905223004 | 63 | 313 | 0.0 | 0.0 | 0.00 | 0.19 | 0.00 | 98 | 1022.1 |
| 20260905221602 | 64 | 313 | 0.0 | 0.0 | 0.00 | 0.19 | 0.00 | 98 | 1021.9 |
| 20260905220059 | 64 | 313 | 0.0 | 0.0 | 0.00 | 0.19 | 0.00 | 98 | 1022.0 |
| 20260905214556 | 64 | 313 | 0.0 | 0.0 | 0.00 | 0.19 | 0.19 | 98 | 1021.9 |
| 20260905213055 | 64 | 313 | 0.0 | 0.0 | 0.00 | 0.19 | 0.19 | 98 | 1021.9 |
| 20260905211554 | 65 | 313 | 0.0 | 0.0 | 0.00 | 0.19 | 0.19 | 99 | 1021.5 |
| 20260905210110 | 65 | 313 | 0.0 | 0.0 | 0.00 | 0.19 | 0.19 | 98 | 1021.6 |
| 20260905204553 | 65 | 312 | 0.0 | 0.0 | 0.00 | 0.19 | 0.19 | 98 | 1021.7 |
| 20260905203052 | 65 | 312 | 0.0 | 0.0 | 0.00 | 0.19 | 0.19 | 98 | 1021.5 |
| 20260905201551 | 65 | 313 | 0.0 | 0.0 | 0.00 | 0.19 | 0.19 | 98 | 1021.4 |
| 20260905200112 | 66 | 313 | 0.0 | 0.0 | 0.00 | 0.19 | 0.19 | 98 | 1021.4 |
| 20260905194548 | 66 | 313 | 0.0 | 0.0 | 0.00 | 0.19 | 0.19 | 99 | 1021.2 |
| 20260905193047 | 66 | 312 | 0.0 | 0.0 | 0.00 | 0.19 | 0.19 | 99 | 1021.1 |
| 20260905191546 | 66 | 313 | 0.0 | 0.0 | 0.00 | 0.19 | 0.19 | 98 | 1020.9 |
| 20260905190044 | 66 | 313 | 0.0 | 0.0 | 0.00 | 0.19 | 0.19 | 98 | 1020.6 |
| 20260905184549 | 66 | 312 | 0.0 | 0.0 | 0.00 | 0.19 | 0.19 | 98 | 1020.5 |
| 20260905183043 | 66 | 312 | 0.0 | 0.0 | 0.00 | 0.19 | 0.19 | 98 | 1020.4 |
| 20260905181545 | 66 | 313 | 0.0 | 0.0 | 0.00 | 0.19 | 0.19 | 98 | 1020.1 |
| 20260905180041 | 67 | 313 | 0.0 | 0.0 | 0.00 | 0.19 | 0.19 | 98 | 1020.0 |
| 20260905174534 | 67 | 312 | 0.0 | 0.0 | 0.00 | 0.19 | 0.19 | 98 | 1019.7 |
| 20260905173042 | 67 | 312 | 0.0 | 0.0 | 0.00 | 0.19 | 0.19 | 97 | 1019.6 |
| 20260905171533 | 67 | 312 | 0.0 | 0.0 | 0.00 | 0.19 | 0.19 | 97 | 1019.3 |
| 20260905170029 | 68 | 313 | 0.0 | 0.0 | 0.00 | 0.19 | 0.19 | 97 | 1019.0 |
| 20260905164529 | 68 | 312 | 0.0 | 0.0 | 0.00 | 0.19 | 0.19 | 98 | 1018.8 |
| 20260905163027 | 68 | 313 | 0.0 | 0.0 | 0.01 | 0.19 | 0.19 | 97 | 1018.6 |
| 20260905161524 | 68 | 312 | 0.0 | 0.0 | 0.02 | 0.19 | 0.19 | 97 | 1018.7 |
| 20260905160024 | 68 | 313 | 0.0 | 0.0 | 0.02 | 0.19 | 0.19 | 97 | 1018.6 |
| 20260905154523 | 68 | 312 | 0.0 | 0.0 | 0.02 | 0.19 | 0.19 | 97 | 1018.6 |
| 20260905153028 | 68 | 313 | 0.0 | 0.0 | 0.03 | 0.18 | 0.18 | 96 | 1018.7 |
| 20260905151520 | 68 | 313 | 0.0 | 0.0 | 0.02 | 0.17 | 0.17 | 96 | 1018.5 |
| 20260905150023 | 69 | 312 | 0.0 | 0.0 | 0.02 | 0.17 | 0.17 | 96 | 1018.2 |
| 20260905144518 | 69 | 313 | 0.0 | 0.0 | 0.02 | 0.17 | 0.17 | 96 | 1017.9 |
| 20260905143023 | 70 | 312 | 0.0 | 0.0 | 0.01 | 0.15 | 0.15 | 95 | 1017.9 |
| 20260905141514 | 70 | 312 | 0.0 | 0.0 | 0.09 | 0.15 | 0.15 | 95 | 1017.6 |
| 20260905140013 | 70 | 313 | 0.0 | 0.0 | 0.13 | 0.15 | 0.15 | 95 | 1017.5 |
| 20260905134523 | 70 | 313 | 0.0 | 0.0 | 0.15 | 0.15 | 0.15 | 93 | 1017.5 |
| 20260905133011 | 71 | 319 | 0.0 | 0.0 | 0.14 | 0.14 | 0.14 | 91 | 1017.5 |
| 20260905131509 | 74 | 315 | 0.0 | 0.0 | 0.06 | 0.06 | 0.06 | 85 | 1017.3 |
| 20260905130005 | 79 | 323 | 0.0 | 0.0 | 0.02 | 0.02 | 0.02 | 78 | 1016.7 |
| 20260905124504 | 82 | 330 | 0.0 | 0.0 | 0.00 | 0.00 | 0.00 | 61 | 1016.4 |
| 20260905123012 | 83 | 327 | 0.0 | 0.0 | 0.00 | 0.00 | 0.00 | 62 | 1016.5 |
| 20260905121501 | 83 | 322 | 0.0 | 0.0 | 0.00 | 0.00 | 0.00 | 60 | 1016.5 |
| 20260905120100 | 82 | 335 | 0.0 | 0.0 | 0.00 | 0.00 | 0.00 | 61 | 1016.5 |
| 20260905114556 | 82 | 329 | 0.0 | 0.0 | 0.00 | 0.00 | 0.00 | 65 | 1016.7 |
| 20260905113055 | 81 | 330 | 0.0 | 0.0 | 0.00 | 0.00 | 0.00 | 68 | 1016.7 |
| 20260905111558 | 81 | 330 | 0.0 | 0.0 | 0.00 | 0.00 | 0.00 | 64 | 1016.7 |
| 20260905110051 | 80 | 318 | 0.0 | 0.0 | 0.00 | 0.00 | 0.00 | 66 | 1016.8 |
| 20260905104547 | 79 | 309 | 0.0 | 0.0 | 0.00 | 0.00 | 0.00 | 70 | 1016.7 |
| 20260905103053 | 78 | 327 | 0.0 | 0.0 | 0.00 | 0.00 | 0.00 | 71 | 1016.5 |
| 20260905101541 | 77 | 319 | 0.0 | 0.0 | 0.00 | 0.00 | 0.00 | 75 | 1016.5 |
| 20260905100050 | 77 | 321 | 0.0 | 0.0 | 0.00 | 0.00 | 0.00 | 74 | 1016.7 |
| 20260905094536 | 76 | 325 | 0.0 | 0.0 | 0.00 | 0.00 | 0.00 | 76 | 1016.6 |
| 20260905093035 | 76 | 323 | 0.0 | 0.0 | 0.00 | 0.00 | 0.00 | 76 | 1016.6 |
| 20260905091541 | 76 | 322 | 0.0 | 0.0 | 0.00 | 0.00 | 0.00 | 78 | 1016.7 |
| 20260905090030 | 75 | 318 | 0.0 | 0.0 | 0.00 | 0.00 | 0.00 | 79 | 1016.8 |
| 20260905084527 | 75 | 324 | 0.0 | 0.0 | 0.00 | 0.00 | 0.00 | 78 | 1016.8 |
| 20260905083026 | 75 | 325 | 0.0 | 0.0 | 0.00 | 0.00 | 0.00 | 77 | 1016.6 |
| 20260905081523 | 74 | 321 | 0.0 | 0.0 | 0.00 | 0.00 | 0.00 | 82 | 1016.4 |
| 20260905080028 | 74 | 321 | 0.0 | 0.0 | 0.00 | 0.00 | 0.00 | 82 | 1016.4 |
| 20260905074518 | 72 | 319 | 0.0 | 0.0 | 0.00 | 0.00 | 0.00 | 83 | 1016.4 |
| 20260905073022 | 70 | 314 | 0.0 | 0.0 | 0.00 | 0.00 | 0.00 | 91 | 1016.3 |
| 20260905071509 | 67 | 311 | 0.0 | 0.0 | 0.00 | 0.00 | 0.00 | 93 | 1016.1 |
| 20260905070005 | 66 | 311 | 0.0 | 0.0 | 0.00 | 0.00 | 0.00 | 93 | 1016.2 |
| 20260905064501 | 65 | 311 | 0.0 | 0.0 | 0.00 | 0.00 | 0.00 | 95 | 1016.2 |
| 20260905063058 | 63 | 311 | 0.0 | 0.0 | 0.00 | 0.00 | 0.00 | 98 | 1016.0 |
| 20260905061558 | 62 | 311 | 0.0 | 0.0 | 0.00 | 0.00 | 0.00 | 100 | 1016.1 |
| 20260905060100 | 60 | 311 | 0.0 | 0.0 | 0.00 | 0.00 | 0.00 | 99 | 1015.9 |
| 20260905054553 | 59 | 311 | 0.0 | 0.0 | 0.00 | 0.00 | 0.00 | 99 | 1016.1 |
| 20260905053044 | 58 | 311 | 0.0 | 0.0 | 0.00 | 0.00 | 0.00 | 99 | 1016.2 |